Time;durP1;ratioP1;P1;durP2;ratioP2;P2;SDS_P1;SDS_P2;PMS_P1;PMS_P2;Temp;Humidity;BMP_temperature;BMP_pressure;BME280_temperature;BME280_humidity;BME280_pressure;Samples;Min_cycle;Max_cycle;Signal;HPM_P1;HPM_P2
2024/01/13 00:01:38;;;;;;;11.25;5.55;;;;;;;;;;4964278;29;20071;-78
2024/01/13 00:04:05;;;;;;;11.82;5.47;;;;;;;;;;4931868;29;20059;-79
2024/01/13 00:06:32;;;;;;;12.85;6.07;;;;;;;;;;4915355;29;20028;-79
2024/01/13 00:08:59;;;;;;;11.82;5.05;;;;;;;;;;4914663;29;20027;-80
2024/01/13 00:11:24;;;;;;;11.27;5.57;;;;;;;;;;4945551;29;20031;-78
2024/01/13 00:13:50;;;;;;;13.40;5.85;;;;;;;;;;4929800;29;20031;-79
2024/01/13 00:16:16;;;;;;;11.18;5.80;;;;;;;;;;4914923;29;20045;-77
2024/01/13 00:18:43;;;;;;;18.85;6.75;;;;;;;;;;4929823;29;20133;-79
2024/01/13 00:21:16;;;;;;;13.13;5.97;;;;;;;;;;4947568;29;20035;-77
2024/01/13 00:23:45;;;;;;;13.57;6.15;;;;;;;;;;4962371;28;20106;-78
2024/01/13 00:26:12;;;;;;;12.93;5.95;;;;;;;;;;4913502;29;20043;-78
2024/01/13 00:28:38;;;;;;;14.07;6.07;;;;;;;;;;4930494;29;20059;-78
2024/01/13 00:31:04;;;;;;;16.08;6.95;;;;;;;;;;4948269;29;20051;-79
2024/01/13 00:33:30;;;;;;;14.05;6.15;;;;;;;;;;4967502;29;20380;-78
2024/01/13 00:35:55;;;;;;;14.32;6.88;;;;;;;;;;4937237;29;20042;-78
2024/01/13 00:38:23;;;;;;;14.20;6.20;;;;;;;;;;4955744;29;20146;-78
2024/01/13 00:40:48;;;;;;;16.98;7.25;;;;;;;;;;4962176;29;20031;-78
2024/01/13 00:43:14;;;;;;;13.38;6.75;;;;;;;;;;4962889;29;20019;-79
2024/01/13 00:45:41;;;;;;;14.13;6.93;;;;;;;;;;4959866;29;20021;-78
2024/01/13 00:48:07;;;;;;;14.32;6.70;;;;;;;;;;4971232;29;20069;-78
2024/01/13 00:50:35;;;;;;;12.63;6.38;;;;;;;;;;4915604;29;20043;-79
2024/01/13 00:53:00;;;;;;;16.52;7.35;;;;;;;;;;4930261;29;20039;-77
2024/01/13 00:55:26;;;;;;;14.60;7.00;;;;;;;;;;4961920;29;20042;-78
2024/01/13 00:57:53;;;;;;;17.55;7.88;;;;;;;;;;4913132;29;20087;-78
2024/01/13 01:00:19;;;;;;;14.65;7.30;;;;;;;;;;4915856;29;20054;-79
2024/01/13 01:02:47;;;;;;;13.90;6.75;;;;;;;;;;4933400;29;20118;-78
2024/01/13 01:05:14;;;;;;;17.90;7.45;;;;;;;;;;4916823;29;20067;-78
2024/01/13 01:07:39;;;;;;;15.50;8.35;;;;;;;;;;4950640;29;20038;-79
2024/01/13 01:10:05;;;;;;;17.27;8.30;;;;;;;;;;4941850;29;20505;-78
2024/01/13 01:12:31;;;;;;;16.58;7.15;;;;;;;;;;4948094;29;20023;-78
2024/01/13 01:14:56;;;;;;;16.25;7.78;;;;;;;;;;4912099;29;20044;-78
2024/01/13 01:17:22;;;;;;;13.15;6.55;;;;;;;;;;4957906;29;20035;-79
2024/01/13 01:19:47;;;;;;;16.27;7.40;;;;;;;;;;4926438;29;20132;-79
2024/01/13 01:22:13;;;;;;;14.27;7.13;;;;;;;;;;4904324;29;20043;-78
2024/01/13 01:24:38;;;;;;;17.20;7.53;;;;;;;;;;4942589;29;20048;-78
2024/01/13 01:27:04;;;;;;;17.92;8.15;;;;;;;;;;4937113;29;20082;-80
2024/01/13 01:29:31;;;;;;;22.83;9.65;;;;;;;;;;4949721;29;20038;-78
2024/01/13 01:31:57;;;;;;;12.73;6.68;;;;;;;;;;4926597;29;20044;-78
2024/01/13 01:34:26;;;;;;;13.18;6.60;;;;;;;;;;4947111;29;20060;-79
2024/01/13 01:36:54;;;;;;;17.35;8.80;;;;;;;;;;4937162;29;20113;-78
2024/01/13 01:39:20;;;;;;;15.85;7.45;;;;;;;;;;4913221;29;20066;-78
2024/01/13 01:41:46;;;;;;;15.30;7.47;;;;;;;;;;4944428;29;20375;-77
2024/01/13 01:44:12;;;;;;;15.07;7.88;;;;;;;;;;4942043;29;20057;-78
2024/01/13 01:46:40;;;;;;;14.90;7.00;;;;;;;;;;4944143;29;20125;-77
2024/01/13 01:49:06;;;;;;;10.82;5.47;;;;;;;;;;4959443;29;20023;-77
2024/01/13 01:51:36;;;;;;;14.10;6.97;;;;;;;;;;4944068;29;20035;-78
2024/01/13 01:54:02;;;;;;;14.88;7.70;;;;;;;;;;4959205;29;20364;-79
2024/01/13 01:56:34;;;;;;;16.08;7.75;;;;;;;;;;4944909;28;20031;-77
2024/01/13 01:59:01;;;;;;;15.38;7.47;;;;;;;;;;4928660;29;20089;-78
2024/01/13 02:01:31;;;;;;;16.38;7.88;;;;;;;;;;4949260;29;20069;-78
2024/01/13 02:03:57;;;;;;;16.20;7.32;;;;;;;;;;4973043;29;20031;-78
2024/01/13 02:06:24;;;;;;;15.10;6.90;;;;;;;;;;4962131;28;20038;-77
2024/01/13 02:08:50;;;;;;;16.42;8.00;;;;;;;;;;4966706;28;20063;-78
2024/01/13 02:11:25;;;;;;;12.98;6.80;;;;;;;;;;4948818;29;20070;-78
2024/01/13 02:13:55;;;;;;;13.48;6.22;;;;;;;;;;4963256;28;20063;-78
2024/01/13 02:16:23;;;;;;;15.50;6.88;;;;;;;;;;4962919;29;20035;-78
2024/01/13 02:18:55;;;;;;;15.73;7.15;;;;;;;;;;4931189;29;20545;-78
2024/01/13 02:21:21;;;;;;;15.07;7.50;;;;;;;;;;4943942;29;20045;-78
2024/01/13 02:23:49;;;;;;;13.65;7.05;;;;;;;;;;4944375;29;20114;-77
2024/01/13 02:26:17;;;;;;;15.20;7.63;;;;;;;;;;4944747;29;20098;-78
2024/01/13 02:28:43;;;;;;;16.83;7.50;;;;;;;;;;4960706;29;20031;-78
2024/01/13 02:31:10;;;;;;;16.88;8.55;;;;;;;;;;4941859;29;20043;-78
2024/01/13 02:33:36;;;;;;;14.07;7.60;;;;;;;;;;4927306;29;20066;-78
2024/01/13 02:36:05;;;;;;;15.32;7.50;;;;;;;;;;4925521;29;20054;-78
2024/01/13 02:38:31;;;;;;;15.75;6.80;;;;;;;;;;4926428;29;20038;-77
2024/01/13 02:41:00;;;;;;;13.45;6.43;;;;;;;;;;4955949;29;20121;-78
2024/01/13 02:43:25;;;;;;;14.35;6.97;;;;;;;;;;4958766;29;20053;-78
2024/01/13 02:45:53;;;;;;;13.85;7.13;;;;;;;;;;4942781;29;20106;-77
2024/01/13 02:48:20;;;;;;;13.73;6.70;;;;;;;;;;4940735;29;20427;-78
2024/01/13 02:51:02;;;;;;;12.82;6.63;;;;;;;;;;4943890;29;20038;-79
2024/01/13 02:53:31;;;;;;;12.10;5.50;;;;;;;;;;4941746;29;20039;-78
2024/01/13 02:55:57;;;;;;;11.73;6.40;;;;;;;;;;4961630;29;20040;-78
2024/01/13 02:58:22;;;;;;;14.80;7.20;;;;;;;;;;4960191;29;20027;-78
2024/01/13 03:00:49;;;;;;;12.60;6.35;;;;;;;;;;4944701;29;20039;-79
2024/01/13 03:03:15;;;;;;;14.40;6.93;;;;;;;;;;4943428;29;20087;-78
2024/01/13 03:05:41;;;;;;;15.43;7.70;;;;;;;;;;4945361;29;20055;-77
2024/01/13 03:08:07;;;;;;;12.27;6.13;;;;;;;;;;4928302;29;20397;-78
2024/01/13 03:10:33;;;;;;;13.85;6.28;;;;;;;;;;4971762;29;20047;-78
2024/01/13 03:12:59;;;;;;;9.77;5.60;;;;;;;;;;4953285;29;20034;-78
2024/01/13 03:15:26;;;;;;;16.30;7.27;;;;;;;;;;4937006;29;20115;-78
2024/01/13 03:17:52;;;;;;;15.05;7.25;;;;;;;;;;4957600;28;20269;-78
2024/01/13 03:20:18;;;;;;;14.68;6.60;;;;;;;;;;4963734;29;20039;-77
2024/01/13 03:22:47;;;;;;;12.55;6.25;;;;;;;;;;4962116;29;20100;-77
2024/01/13 03:25:16;;;;;;;15.65;6.93;;;;;;;;;;4978677;28;20096;-78
2024/01/13 03:27:42;;;;;;;12.60;5.68;;;;;;;;;;4976230;29;20035;-77
2024/01/13 03:30:10;;;;;;;15.02;7.85;;;;;;;;;;4944560;29;20498;-77
2024/01/13 03:32:36;;;;;;;14.65;6.60;;;;;;;;;;4972992;28;20027;-78
2024/01/13 03:35:03;;;;;;;15.88;6.88;;;;;;;;;;4935431;29;20053;-78
2024/01/13 03:37:36;;;;;;;12.68;6.47;;;;;;;;;;4949414;29;20407;-78
2024/01/13 03:40:03;;;;;;;;;;;;;;;;;;4933292;29;20106;-78
2024/01/13 03:42:39;;;;;;;13.80;5.85;;;;;;;;;;4949301;29;20075;-78
2024/01/13 03:45:05;;;;;;;15.55;6.30;;;;;;;;;;4949646;28;20034;-79
2024/01/13 03:47:31;;;;;;;12.88;6.30;;;;;;;;;;4933193;29;20040;-78
2024/01/13 03:49:57;;;;;;;14.10;7.47;;;;;;;;;;4965706;28;20036;-78
2024/01/13 03:52:22;;;;;;;14.60;6.70;;;;;;;;;;4949605;29;20070;-79
2024/01/13 03:54:49;;;;;;;14.23;6.68;;;;;;;;;;4949477;29;20035;-78
2024/01/13 03:57:15;;;;;;;16.48;6.47;;;;;;;;;;4950020;29;20036;-78
2024/01/13 03:59:42;;;;;;;15.02;6.82;;;;;;;;;;4965287;29;20035;-78
2024/01/13 04:02:08;;;;;;;15.05;6.40;;;;;;;;;;4949435;29;20124;-78
2024/01/13 04:04:33;;;;;;;13.30;6.60;;;;;;;;;;4966701;29;20410;-78
2024/01/13 04:07:00;;;;;;;11.80;6.30;;;;;;;;;;4964747;29;20039;-78
2024/01/13 04:09:26;;;;;;;13.52;7.10;;;;;;;;;;4965881;29;20115;-78
2024/01/13 04:11:53;;;;;;;13.10;6.47;;;;;;;;;;4948692;28;20163;-78
2024/01/13 04:14:25;;;;;;;15.80;6.72;;;;;;;;;;4932429;29;20427;-78
2024/01/13 04:16:52;;;;;;;15.05;6.30;;;;;;;;;;4932407;29;20094;-77
2024/01/13 04:19:20;;;;;;;12.25;6.20;;;;;;;;;;4964088;28;20038;-78
2024/01/13 04:21:47;;;;;;;17.13;7.18;;;;;;;;;;4960856;29;20046;-78
2024/01/13 04:24:13;;;;;;;12.60;6.10;;;;;;;;;;4926022;29;20035;-78
2024/01/13 04:26:40;;;;;;;14.23;6.60;;;;;;;;;;4926797;29;20406;-78
2024/01/13 04:29:05;;;;;;;11.95;5.85;;;;;;;;;;4953919;29;20431;-77
2024/01/13 04:31:31;;;;;;;14.88;6.75;;;;;;;;;;4945708;29;20038;-78
2024/01/13 04:34:01;;;;;;;15.95;7.00;;;;;;;;;;4964132;29;20034;-78
2024/01/13 04:36:27;;;;;;;13.27;6.53;;;;;;;;;;4929000;29;20134;-77
2024/01/13 04:38:58;;;;;;;14.38;6.65;;;;;;;;;;4964970;29;20050;-78
2024/01/13 04:41:25;;;;;;;14.60;7.15;;;;;;;;;;4945554;29;20059;-78
2024/01/13 04:43:50;;;;;;;14.02;6.95;;;;;;;;;;4947773;29;20502;-78
2024/01/13 04:46:16;;;;;;;13.90;6.90;;;;;;;;;;4966704;29;20062;-79
2024/01/13 04:48:42;;;;;;;15.27;6.40;;;;;;;;;;4953332;29;20061;-78
2024/01/13 04:51:08;;;;;;;14.07;6.80;;;;;;;;;;4970831;29;20031;-78
2024/01/13 04:53:34;;;;;;;14.52;7.28;;;;;;;;;;4953091;29;20061;-78
2024/01/13 04:56:06;;;;;;;12.85;6.32;;;;;;;;;;4949865;29;20039;-78
2024/01/13 04:58:38;;;;;;;13.25;6.53;;;;;;;;;;4922402;29;20111;-79
2024/01/13 05:01:08;;;;;;;14.52;6.32;;;;;;;;;;4923455;29;20036;-79
2024/01/13 05:03:34;;;;;;;14.13;6.82;;;;;;;;;;4976092;28;20015;-77
2024/01/13 05:06:04;;;;;;;14.70;7.57;;;;;;;;;;4966342;28;20030;-77
2024/01/13 05:08:34;;;;;;;16.40;7.15;;;;;;;;;;4950309;29;20103;-78
2024/01/13 05:11:00;;;;;;;12.73;6.15;;;;;;;;;;4965518;28;20019;-78
2024/01/13 05:13:37;;;;;;;18.25;7.63;;;;;;;;;;4949972;28;20036;-77
2024/01/13 05:16:05;;;;;;;11.25;5.90;;;;;;;;;;4961307;29;20035;-79
2024/01/13 05:18:36;;;;;;;13.07;6.68;;;;;;;;;;4937086;29;20046;-78
2024/01/13 05:21:02;;;;;;;13.30;6.13;;;;;;;;;;4929364;29;20057;-78
2024/01/13 05:23:28;;;;;;;10.35;5.75;;;;;;;;;;4928077;29;20086;-78
2024/01/13 05:26:00;;;;;;;10.63;5.35;;;;;;;;;;4943188;29;20047;-78
2024/01/13 05:28:27;;;;;;;12.73;6.60;;;;;;;;;;4944741;29;20027;-77
2024/01/13 05:31:04;;;;;;;15.05;6.13;;;;;;;;;;4927443;29;20087;-78
2024/01/13 05:33:29;;;;;;;11.07;5.70;;;;;;;;;;4936730;29;20031;-79
2024/01/13 05:36:03;;;;;;;14.87;6.37;;;;;;;;;;4927793;29;20031;-79
2024/01/13 05:38:35;;;;;;;13.10;6.43;;;;;;;;;;4931915;29;20280;-78
2024/01/13 05:41:03;;;;;;;;;;;;;;;;;;4927149;29;20498;-78
2024/01/13 05:43:29;;;;;;;13.38;5.80;;;;;;;;;;4957599;29;19917;-77
2024/01/13 05:45:56;;;;;;;13.30;6.82;;;;;;;;;;4955763;29;20062;-78
2024/01/13 05:48:23;;;;;;;13.45;6.05;;;;;;;;;;4939954;29;20035;-78
2024/01/13 05:50:50;;;;;;;11.30;5.60;;;;;;;;;;4923868;29;20091;-78
2024/01/13 05:53:16;;;;;;;14.70;6.07;;;;;;;;;;4940015;29;20039;-77
2024/01/13 05:55:43;;;;;;;10.25;5.20;;;;;;;;;;4957859;29;20037;-77
2024/01/13 05:58:08;;;;;;;12.70;6.15;;;;;;;;;;4940484;29;20589;-78
2024/01/13 06:00:36;;;;;;;12.70;6.18;;;;;;;;;;4955356;29;20055;-78
2024/01/13 06:03:03;;;;;;;11.13;4.85;;;;;;;;;;4940294;29;20430;-78
2024/01/13 06:05:31;;;;;;;13.38;5.68;;;;;;;;;;4958205;29;20039;-77
2024/01/13 06:07:58;;;;;;;11.73;5.82;;;;;;;;;;4925312;29;20115;-78
2024/01/13 06:10:28;;;;;;;10.20;5.28;;;;;;;;;;4957129;29;20031;-77
2024/01/13 06:12:54;;;;;;;9.80;4.70;;;;;;;;;;4956429;29;20027;-78
2024/01/13 06:15:20;;;;;;;12.68;5.40;;;;;;;;;;4913414;29;20031;-79
2024/01/13 06:17:45;;;;;;;11.27;5.55;;;;;;;;;;4936148;29;20042;-78
2024/01/13 06:20:12;;;;;;;12.63;6.13;;;;;;;;;;4907354;29;20521;-78
2024/01/13 06:22:38;;;;;;;9.15;5.43;;;;;;;;;;4923630;29;20103;-78
2024/01/13 06:25:04;;;;;;;9.40;5.30;;;;;;;;;;4923137;29;20478;-77
2024/01/13 06:27:33;;;;;;;11.23;5.53;;;;;;;;;;4939427;29;20073;-78
2024/01/13 06:29:59;;;;;;;12.43;5.57;;;;;;;;;;4923564;29;20035;-78
2024/01/13 06:32:26;;;;;;;12.18;5.53;;;;;;;;;;4955473;29;20027;-78
2024/01/13 06:34:54;;;;;;;12.43;6.05;;;;;;;;;;4939782;29;20051;-78
2024/01/13 06:37:20;;;;;;;12.95;5.53;;;;;;;;;;4955593;29;20048;-77
2024/01/13 06:39:46;;;;;;;11.20;5.60;;;;;;;;;;4937125;29;20471;-78
2024/01/13 06:42:15;;;;;;;9.68;4.80;;;;;;;;;;4940364;29;20051;-78
2024/01/13 06:44:41;;;;;;;12.77;5.25;;;;;;;;;;4955873;28;20050;-78
2024/01/13 06:47:07;;;;;;;12.60;5.82;;;;;;;;;;4958796;29;20388;-78
2024/01/13 06:49:33;;;;;;;13.00;5.55;;;;;;;;;;4910785;29;20043;-78
2024/01/13 06:51:59;;;;;;;11.70;5.13;;;;;;;;;;4959539;29;20034;-78
2024/01/13 06:54:25;;;;;;;10.85;5.28;;;;;;;;;;4945095;29;20032;-79
2024/01/13 06:56:55;;;;;;;11.30;5.73;;;;;;;;;;4928604;29;20042;-78
2024/01/13 06:59:28;;;;;;;14.18;5.80;;;;;;;;;;4950285;29;20108;-78
2024/01/13 07:01:54;;;;;;;14.63;6.38;;;;;;;;;;4934291;29;20101;-77
2024/01/13 07:04:20;;;;;;;12.93;5.10;;;;;;;;;;4949766;29;20043;-78
2024/01/13 07:06:47;;;;;;;12.20;5.35;;;;;;;;;;4964199;29;20307;-77
2024/01/13 07:09:17;;;;;;;11.85;5.32;;;;;;;;;;4942370;29;20023;-78
2024/01/13 07:11:46;;;;;;;9.93;5.15;;;;;;;;;;4958279;29;20051;-77
2024/01/13 07:14:12;;;;;;;12.48;5.43;;;;;;;;;;4956251;29;20115;-77
2024/01/13 07:16:37;;;;;;;11.07;5.57;;;;;;;;;;4957991;29;20067;-78
2024/01/13 07:19:03;;;;;;;13.93;6.22;;;;;;;;;;4941487;29;20122;-77
2024/01/13 07:21:30;;;;;;;13.52;5.50;;;;;;;;;;4912632;29;20047;-77
2024/01/13 07:23:58;;;;;;;10.50;4.97;;;;;;;;;;4949918;29;20039;-78
2024/01/13 07:26:25;;;;;;;11.18;5.03;;;;;;;;;;4969025;29;20463;-78
2024/01/13 07:28:51;;;;;;;12.40;6.40;;;;;;;;;;4939674;29;20035;-78
2024/01/13 07:31:18;;;;;;;11.30;5.03;;;;;;;;;;4935455;29;20046;-77
2024/01/13 07:33:43;;;;;;;13.13;5.90;;;;;;;;;;4939327;29;20032;-78
2024/01/13 07:36:09;;;;;;;11.35;5.72;;;;;;;;;;4923133;29;20051;-78
2024/01/13 07:38:39;;;;;;;12.82;5.53;;;;;;;;;;4923175;29;20047;-78
2024/01/13 07:41:06;;;;;;;11.80;5.53;;;;;;;;;;4890621;29;20066;-78
2024/01/13 07:43:33;;;;;;;13.32;6.65;;;;;;;;;;4952258;29;20046;-78
2024/01/13 07:46:00;;;;;;;10.68;5.35;;;;;;;;;;4925064;29;20043;-78
2024/01/13 07:48:25;;;;;;;11.23;5.07;;;;;;;;;;4960844;29;20023;-79
2024/01/13 07:50:51;;;;;;;12.07;6.05;;;;;;;;;;4947445;29;20058;-77
2024/01/13 07:53:19;;;;;;;13.05;5.20;;;;;;;;;;4948339;29;20039;-78
2024/01/13 07:55:52;;;;;;;11.00;5.43;;;;;;;;;;4936998;29;20095;-77
2024/01/13 07:58:18;;;;;;;9.55;4.70;;;;;;;;;;4958323;29;20039;-77
2024/01/13 08:00:46;;;;;;;11.23;4.85;;;;;;;;;;4978851;29;20059;-78
2024/01/13 08:03:12;;;;;;;11.18;4.55;;;;;;;;;;4932175;29;20043;-78
2024/01/13 08:05:38;;;;;;;11.30;5.40;;;;;;;;;;4960593;29;20024;-77
2024/01/13 08:08:07;;;;;;;11.30;5.50;;;;;;;;;;4933658;29;20069;-78
2024/01/13 08:10:32;;;;;;;10.50;5.05;;;;;;;;;;4981675;28;20043;-78
2024/01/13 08:13:00;;;;;;;9.45;4.82;;;;;;;;;;4950649;28;20102;-78
2024/01/13 08:15:26;;;;;;;11.75;5.60;;;;;;;;;;4976712;29;20027;-78
2024/01/13 08:17:53;;;;;;;8.93;4.70;;;;;;;;;;4944605;29;20094;-79
2024/01/13 08:20:20;;;;;;;11.45;4.85;;;;;;;;;;4954897;29;20039;-78
2024/01/13 08:22:48;;;;;;;11.88;5.22;;;;;;;;;;4923151;29;20039;-78
2024/01/13 08:25:17;;;;;;;11.02;4.70;;;;;;;;;;4934174;29;20038;-78
2024/01/13 08:27:44;;;;;;;11.07;5.32;;;;;;;;;;4925596;29;20043;-79
2024/01/13 08:30:10;;;;;;;10.00;5.07;;;;;;;;;;4958743;29;20466;-78
2024/01/13 08:32:38;;;;;;;11.10;5.65;;;;;;;;;;4941963;29;20107;-76
2024/01/13 08:35:10;;;;;;;10.93;5.03;;;;;;;;;;4958151;29;20114;-77
2024/01/13 08:37:42;;;;;;;10.00;5.35;;;;;;;;;;4959319;29;20031;-78
2024/01/13 08:40:09;;;;;;;10.18;4.68;;;;;;;;;;4957528;29;20035;-79
2024/01/13 08:42:37;;;;;;;11.13;5.55;;;;;;;;;;4926259;29;20035;-78
2024/01/13 08:45:04;;;;;;;12.05;5.50;;;;;;;;;;4930658;29;20051;-78
2024/01/13 08:47:32;;;;;;;13.00;5.32;;;;;;;;;;4926440;29;20118;-79
2024/01/13 08:50:02;;;;;;;8.98;4.78;;;;;;;;;;4956118;29;20058;-77
2024/01/13 08:52:28;;;;;;;10.00;4.80;;;;;;;;;;4928376;29;20031;-78
2024/01/13 08:54:54;;;;;;;10.48;5.18;;;;;;;;;;4910284;29;20137;-79
2024/01/13 08:57:20;;;;;;;10.65;4.55;;;;;;;;;;4926058;29;20035;-79
2024/01/13 08:59:47;;;;;;;13.57;5.53;;;;;;;;;;4941349;29;20089;-78
2024/01/13 09:02:18;;;;;;;12.55;5.78;;;;;;;;;;4925475;29;20091;-78
2024/01/13 09:04:44;;;;;;;9.30;4.95;;;;;;;;;;4957550;29;20036;-78
2024/01/13 09:07:11;;;;;;;13.32;6.25;;;;;;;;;;4939062;29;20044;-77
2024/01/13 09:09:39;;;;;;;13.02;5.70;;;;;;;;;;4941278;29;20513;-79
2024/01/13 09:12:07;;;;;;;10.38;5.10;;;;;;;;;;4938581;29;20055;-78
2024/01/13 09:14:33;;;;;;;9.77;5.40;;;;;;;;;;4940900;29;20514;-79
2024/01/13 09:16:58;;;;;;;13.27;6.18;;;;;;;;;;4957094;29;20122;-79
2024/01/13 09:19:26;;;;;;;9.70;5.10;;;;;;;;;;4924281;29;20054;-78
2024/01/13 09:21:52;;;;;;;9.98;5.03;;;;;;;;;;4923692;29;20407;-78
2024/01/13 09:24:18;;;;;;;11.90;5.88;;;;;;;;;;4957206;29;20082;-79
2024/01/13 09:26:46;;;;;;;12.38;5.47;;;;;;;;;;4924673;29;20043;-77
2024/01/13 09:29:15;;;;;;;12.05;5.35;;;;;;;;;;4941129;29;20126;-78
2024/01/13 09:31:42;;;;;;;11.18;5.43;;;;;;;;;;4924338;29;20027;-79
2024/01/13 09:34:11;;;;;;;11.75;6.63;;;;;;;;;;5005988;23;20414;-78
2024/01/13 09:36:36;;;;;;;10.75;6.00;;;;;;;;;;4958912;28;20031;-78
2024/01/13 09:39:04;;;;;;;11.75;6.07;;;;;;;;;;4924011;28;20103;-77
2024/01/13 09:41:29;;;;;;;11.70;5.78;;;;;;;;;;4964997;28;20035;-78
2024/01/13 09:44:12;;;;;;;11.48;6.18;;;;;;;;;;4953519;29;20070;-79
2024/01/13 09:46:39;;;;;;;10.13;4.50;;;;;;;;;;4901203;29;20051;-78
2024/01/13 09:49:08;;;;;;;10.00;5.15;;;;;;;;;;4928762;29;20159;-79
2024/01/13 09:51:38;;;;;;;12.32;6.00;;;;;;;;;;4944461;29;20047;-79
2024/01/13 09:54:27;;;;;;;10.65;5.35;;;;;;;;;;4960000;28;20035;-78
2024/01/13 09:56:55;;;;;;;10.85;5.97;;;;;;;;;;4940845;29;20050;-79
2024/01/13 09:59:28;;;;;;;13.40;5.13;;;;;;;;;;4930709;29;20040;-79
2024/01/13 10:02:21;;;;;;;10.25;5.30;;;;;;;;;;4931534;29;20078;-79
2024/01/13 10:04:49;;;;;;;14.90;5.05;;;;;;;;;;4956268;28;20086;-78
2024/01/13 10:07:26;;;;;;;10.98;5.30;;;;;;;;;;4939560;29;20063;-79
2024/01/13 10:09:54;;;;;;;9.77;5.20;;;;;;;;;;4925487;29;20082;-79
2024/01/13 10:12:26;;;;;;;10.93;5.80;;;;;;;;;;4923964;29;20027;-79
2024/01/13 10:14:56;;;;;;;12.55;4.93;;;;;;;;;;4906876;29;20281;-79
2024/01/13 10:17:27;;;;;;;10.82;5.30;;;;;;;;;;4956342;28;20063;-78
2024/01/13 10:19:58;;;;;;;10.35;5.13;;;;;;;;;;4939545;29;20035;-79
2024/01/13 10:22:28;;;;;;;11.65;5.47;;;;;;;;;;4924726;29;20097;-78
2024/01/13 10:24:55;;;;;;;11.23;5.75;;;;;;;;;;4924981;29;20471;-79
2024/01/13 10:27:29;;;;;;;11.38;5.13;;;;;;;;;;4957606;29;20039;-79
2024/01/13 10:30:10;;;;;;;11.20;5.10;;;;;;;;;;4956529;29;20042;-78
2024/01/13 10:32:43;;;;;;;9.27;4.97;;;;;;;;;;4923914;29;20398;-79
2024/01/13 10:35:15;;;;;;;12.90;5.85;;;;;;;;;;4923260;29;20027;-77
2024/01/13 10:37:42;;;;;;;10.73;5.13;;;;;;;;;;4918964;29;20566;-78
2024/01/13 10:40:10;;;;;;;12.25;5.13;;;;;;;;;;4955163;29;20031;-79
2024/01/13 10:42:48;;;;;;;10.93;4.95;;;;;;;;;;4938217;29;20072;-78
2024/01/13 10:45:18;;;;;;;10.05;5.22;;;;;;;;;;4934886;29;20550;-78
2024/01/13 10:47:45;;;;;;;10.40;5.10;;;;;;;;;;4945072;29;20031;-79
2024/01/13 10:50:13;;;;;;;10.07;4.95;;;;;;;;;;4939906;29;20031;-79
2024/01/13 10:52:53;;;;;;;10.05;4.50;;;;;;;;;;4939953;29;20027;-77
2024/01/13 10:55:26;;;;;;;10.32;4.90;;;;;;;;;;4939804;29;20483;-78
2024/01/13 10:57:58;;;;;;;9.18;4.55;;;;;;;;;;4922959;28;20126;-78
2024/01/13 11:00:27;;;;;;;12.80;5.35;;;;;;;;;;4942461;29;20102;-79
2024/01/13 11:02:56;;;;;;;12.68;5.28;;;;;;;;;;4927367;29;20058;-79
2024/01/13 11:05:22;;;;;;;;;;;;;;;;;;4973263;28;20075;-78
2024/01/13 11:07:50;;;;;;;9.57;4.10;;;;;;;;;;4977770;28;19922;-79
2024/01/13 11:10:18;;;;;;;13.25;6.18;;;;;;;;;;4979046;28;20027;-79
2024/01/13 11:12:49;;;;;;;9.50;4.97;;;;;;;;;;4946957;29;20037;-79
2024/01/13 11:15:28;;;;;;;10.48;5.30;;;;;;;;;;4963410;28;20024;-79
2024/01/13 11:18:04;;;;;;;11.35;5.28;;;;;;;;;;4962942;29;20027;-79
2024/01/13 11:20:51;;;;;;;10.35;4.90;;;;;;;;;;4970522;28;20051;-79
2024/01/13 11:23:31;;;;;;;10.57;5.43;;;;;;;;;;4896074;29;20045;-78
2024/01/13 11:26:03;;;;;;;10.65;4.50;;;;;;;;;;4908782;29;20394;-79
2024/01/13 11:28:52;;;;;;;12.07;4.90;;;;;;;;;;4924633;29;20139;-78
2024/01/13 11:31:31;;;;;;;10.85;4.97;;;;;;;;;;4943464;29;20035;-80
2024/01/13 11:33:58;;;;;;;12.68;5.30;;;;;;;;;;4959690;29;20023;-80
2024/01/13 11:36:26;;;;;;;10.65;4.90;;;;;;;;;;4911870;29;20479;-78
2024/01/13 11:38:55;;;;;;;11.70;5.38;;;;;;;;;;4943067;29;20043;-79
2024/01/13 11:41:22;;;;;;;10.70;5.55;;;;;;;;;;4942916;29;20043;-78
2024/01/13 11:43:49;;;;;;;11.10;5.45;;;;;;;;;;4898443;29;20035;-79
2024/01/13 11:46:17;;;;;;;12.52;6.05;;;;;;;;;;4960891;29;20051;-79
2024/01/13 11:48:46;;;;;;;11.30;5.07;;;;;;;;;;4943781;29;20035;-78
2024/01/13 11:54:05;;;;;;;16.30;5.90;;;;;;;;;;4940179;29;20113;-79
2024/01/13 11:56:33;;;;;;;11.32;5.28;;;;;;;;;;4946717;29;20050;-79
2024/01/13 11:59:05;;;;;;;11.95;5.43;;;;;;;;;;4943817;29;20442;-79
2024/01/13 12:01:32;;;;;;;11.52;5.78;;;;;;;;;;4943006;29;20091;-77
2024/01/13 12:03:59;;;;;;;14.15;6.60;;;;;;;;;;4959470;29;20039;-78
2024/01/13 12:06:33;;;;;;;12.73;6.00;;;;;;;;;;4941723;29;20114;-79
2024/01/13 12:09:01;;;;;;;13.00;6.05;;;;;;;;;;4943617;29;20035;-78
2024/01/13 12:11:28;;;;;;;13.60;6.00;;;;;;;;;;4962047;29;20055;-79
2024/01/13 12:13:58;;;;;;;13.35;6.55;;;;;;;;;;4945761;29;20031;-78
2024/01/13 12:16:29;;;;;;;17.23;6.80;;;;;;;;;;4914705;29;20035;-79
2024/01/13 12:18:54;;;;;;;17.00;7.15;;;;;;;;;;4959236;29;20039;-78
2024/01/13 12:21:23;;;;;;;12.80;6.03;;;;;;;;;;4963232;29;20039;-78
2024/01/13 12:23:48;;;;;;;14.40;6.72;;;;;;;;;;4960573;29;20248;-79
2024/01/13 12:26:15;;;;;;;15.40;6.80;;;;;;;;;;4928425;29;20051;-78
2024/01/13 12:28:45;;;;;;;11.88;6.13;;;;;;;;;;4942932;29;20126;-79
2024/01/13 12:31:10;;;;;;;12.70;6.32;;;;;;;;;;4930583;29;20499;-79
2024/01/13 12:34:27;;;;;;;13.15;6.45;;;;;;;;;;4947416;29;20501;-79
2024/01/13 12:37:15;;;;;;;14.27;7.40;;;;;;;;;;4959721;29;20051;-78
2024/01/13 12:39:44;;;;;;;15.85;8.57;;;;;;;;;;4948443;29;20066;-78
2024/01/13 12:42:40;;;;;;;16.63;7.85;;;;;;;;;;4980830;28;20039;-78
2024/01/13 12:45:12;;;;;;;16.55;7.20;;;;;;;;;;4948756;29;20051;-79
2024/01/13 12:47:38;;;;;;;18.27;8.40;;;;;;;;;;4978012;29;20035;-78
2024/01/13 12:50:11;;;;;;;15.43;7.72;;;;;;;;;;4933791;29;20043;-78
2024/01/13 12:52:39;;;;;;;15.82;7.70;;;;;;;;;;4948754;29;20011;-79
2024/01/13 12:55:09;;;;;;;14.85;7.80;;;;;;;;;;4947153;29;20039;-77
2024/01/13 12:57:35;;;;;;;15.93;8.02;;;;;;;;;;4944838;29;20051;-78
2024/01/13 13:00:06;;;;;;;15.20;8.32;;;;;;;;;;4968360;29;20039;-78
2024/01/13 13:02:32;;;;;;;;;;;;;;;;;;4951855;29;20043;-79
2024/01/13 13:05:06;;;;;;;18.90;8.10;;;;;;;;;;4950537;29;19996;-77
2024/01/13 13:07:54;;;;;;;15.65;7.57;;;;;;;;;;4949599;29;20423;-77
2024/01/13 13:10:22;;;;;;;20.48;8.93;;;;;;;;;;4950329;29;20074;-79
2024/01/13 13:13:05;;;;;;;20.40;9.35;;;;;;;;;;4946433;29;20031;-80
2024/01/13 13:15:31;;;;;;;16.63;8.18;;;;;;;;;;4929459;29;20041;-78
2024/01/13 13:17:57;;;;;;;16.67;8.32;;;;;;;;;;4946195;29;20054;-78
2024/01/13 13:20:23;;;;;;;18.90;8.75;;;;;;;;;;4929281;29;20403;-78
2024/01/13 13:22:52;;;;;;;17.65;8.85;;;;;;;;;;4961741;29;20038;-78
2024/01/13 13:25:23;;;;;;;19.63;8.15;;;;;;;;;;4944201;29;20046;-80
2024/01/13 13:27:49;;;;;;;19.70;9.45;;;;;;;;;;4942063;29;20034;-78
2024/01/13 13:30:19;;;;;;;18.58;8.80;;;;;;;;;;4941999;29;20502;-79
2024/01/13 13:32:46;;;;;;;18.05;8.55;;;;;;;;;;4894862;29;20042;-79
2024/01/13 13:35:16;;;;;;;20.52;9.90;;;;;;;;;;4925931;29;20039;-79
2024/01/13 13:37:48;;;;;;;16.33;7.75;;;;;;;;;;4941568;29;20037;-80
2024/01/13 13:40:24;;;;;;;19.50;8.57;;;;;;;;;;4911107;29;20027;-77
2024/01/13 13:42:53;;;;;;;18.15;8.55;;;;;;;;;;4924487;29;20478;-78
2024/01/13 13:45:28;;;;;;;21.17;8.93;;;;;;;;;;4926957;29;20059;-79
2024/01/13 13:48:02;;;;;;;19.58;9.25;;;;;;;;;;4942426;29;20052;-79
2024/01/13 13:50:41;;;;;;;17.88;9.48;;;;;;;;;;4926864;29;20028;-77
2024/01/13 13:53:08;;;;;;;19.67;8.57;;;;;;;;;;4910984;29;20102;-78
2024/01/13 13:55:36;;;;;;;20.65;8.77;;;;;;;;;;4909912;29;20039;-79
2024/01/13 13:58:03;;;;;;;20.23;9.07;;;;;;;;;;4958202;29;20039;-79
2024/01/13 14:00:37;;;;;;;18.67;8.40;;;;;;;;;;4959617;29;20394;-79
2024/01/13 14:03:06;;;;;;;19.10;8.80;;;;;;;;;;4958846;29;20043;-79
2024/01/13 14:05:31;;;;;;;23.08;10.60;;;;;;;;;;4930453;29;20035;-79
2024/01/13 14:08:00;;;;;;;23.70;9.75;;;;;;;;;;4975547;29;20038;-79
2024/01/13 14:10:27;;;;;;;18.50;8.30;;;;;;;;;;4963158;29;20039;-80
2024/01/13 14:12:54;;;;;;;22.23;9.32;;;;;;;;;;4961867;29;20055;-79
2024/01/13 14:15:30;;;;;;;22.50;10.10;;;;;;;;;;4962099;29;20035;-79
2024/01/13 14:17:56;;;;;;;20.98;9.32;;;;;;;;;;4944904;29;20089;-79
2024/01/13 14:20:27;;;;;;;19.40;9.77;;;;;;;;;;4962834;29;20031;-79
2024/01/13 14:22:57;;;;;;;20.00;9.43;;;;;;;;;;4959692;29;20086;-78
2024/01/13 14:25:25;;;;;;;24.40;9.82;;;;;;;;;;4947978;29;20035;-79
2024/01/13 14:27:52;;;;;;;20.73;8.57;;;;;;;;;;4948087;29;20062;-79
2024/01/13 14:30:23;;;;;;;16.15;7.88;;;;;;;;;;4951230;29;20036;-78
2024/01/13 14:32:59;;;;;;;19.27;9.02;;;;;;;;;;4936153;29;20060;-78
2024/01/13 14:35:44;;;;;;;17.52;9.30;;;;;;;;;;4940293;29;20035;-79
2024/01/13 14:38:11;;;;;;;16.52;7.57;;;;;;;;;;4955851;29;20038;-78
2024/01/13 14:41:09;;;;;;;18.77;8.27;;;;;;;;;;4950211;29;20039;-80
2024/01/13 14:43:49;;;;;;;20.70;8.27;;;;;;;;;;4926169;29;20527;-79